sensor_id;sensor_type;location;lat;lon;timestamp;temperature;humidity
14739;DHT22;7461;52.440;13.540;2023-04-01T00:02:22;9.60;99.90
14739;DHT22;7461;52.440;13.540;2023-04-01T00:04:52;9.50;99.90
14739;DHT22;7461;52.440;13.540;2023-04-01T00:07:19;9.60;99.90
14739;DHT22;7461;52.440;13.540;2023-04-01T00:09:46;9.60;99.90
14739;DHT22;7461;52.440;13.540;2023-04-01T00:12:13;9.50;99.90
14739;DHT22;7461;52.440;13.540;2023-04-01T00:14:40;9.50;99.90
14739;DHT22;7461;52.440;13.540;2023-04-01T00:17:07;9.50;99.90
14739;DHT22;7461;52.440;13.540;2023-04-01T00:19:34;9.50;99.90
14739;DHT22;7461;52.440;13.540;2023-04-01T00:22:02;9.50;99.90
14739;DHT22;7461;52.440;13.540;2023-04-01T00:24:29;9.50;99.90
14739;DHT22;7461;52.440;13.540;2023-04-01T00:26:56;9.40;99.90
14739;DHT22;7461;52.440;13.540;2023-04-01T00:29:23;9.50;99.90
14739;DHT22;7461;52.440;13.540;2023-04-01T00:31:57;9.50;99.90
14739;DHT22;7461;52.440;13.540;2023-04-01T00:34:24;9.50;99.90
14739;DHT22;7461;52.440;13.540;2023-04-01T00:36:52;9.50;99.90
14739;DHT22;7461;52.440;13.540;2023-04-01T00:39:21;9.50;99.90
14739;DHT22;7461;52.440;13.540;2023-04-01T00:41:48;9.50;99.90
14739;DHT22;7461;52.440;13.540;2023-04-01T00:44:18;9.50;99.90
14739;DHT22;7461;52.440;13.540;2023-04-01T00:46:45;9.50;99.90
14739;DHT22;7461;52.440;13.540;2023-04-01T00:49:13;9.40;99.90
14739;DHT22;7461;52.440;13.540;2023-04-01T00:51:41;9.50;99.90
14739;DHT22;7461;52.440;13.540;2023-04-01T00:54:09;9.50;99.90
14739;DHT22;7461;52.440;13.540;2023-04-01T00:56:41;9.50;99.90
14739;DHT22;7461;52.440;13.540;2023-04-01T00:59:11;9.50;99.90
14739;DHT22;7461;52.440;13.540;2023-04-01T01:01:40;9.50;99.90
14739;DHT22;7461;52.440;13.540;2023-04-01T01:04:18;9.50;99.90
14739;DHT22;7461;52.440;13.540;2023-04-01T01:06:52;9.50;99.90
14739;DHT22;7461;52.440;13.540;2023-04-01T01:09:34;9.50;99.90
14739;DHT22;7461;52.440;13.540;2023-04-01T01:12:11;9.50;99.90
14739;DHT22;7461;52.440;13.540;2023-04-01T01:14:48;9.50;99.90
14739;DHT22;7461;52.440;13.540;2023-04-01T01:17:26;9.50;99.90
14739;DHT22;7461;52.440;13.540;2023-04-01T01:20:16;9.50;99.90
14739;DHT22;7461;52.440;13.540;2023-04-01T01:22:57;9.50;99.90
14739;DHT22;7461;52.440;13.540;2023-04-01T01:25:38;9.50;99.90
14739;DHT22;7461;52.440;13.540;2023-04-01T01:28:25;9.50;99.90
14739;DHT22;7461;52.440;13.540;2023-04-01T01:31:00;9.50;99.90
14739;DHT22;7461;52.440;13.540;2023-04-01T01:33:42;9.50;99.90
14739;DHT22;7461;52.440;13.540;2023-04-01T01:36:13;9.60;99.90
14739;DHT22;7461;52.440;13.540;2023-04-01T01:38:41;9.50;99.90
14739;DHT22;7461;52.440;13.540;2023-04-01T01:41:09;9.50;99.90
14739;DHT22;7461;52.440;13.540;2023-04-01T01:43:40;9.50;99.90
14739;DHT22;7461;52.440;13.540;2023-04-01T01:46:11;9.50;99.90
14739;DHT22;7461;52.440;13.540;2023-04-01T01:48:40;9.50;99.90
14739;DHT22;7461;52.440;13.540;2023-04-01T01:51:08;9.50;99.90
14739;DHT22;7461;52.440;13.540;2023-04-01T01:53:37;9.50;99.90
14739;DHT22;7461;52.440;13.540;2023-04-01T01:56:04;9.50;99.90
14739;DHT22;7461;52.440;13.540;2023-04-01T01:58:35;9.50;99.90
14739;DHT22;7461;52.440;13.540;2023-04-01T02:01:09;9.50;99.90
14739;DHT22;7461;52.440;13.540;2023-04-01T02:03:38;9.50;99.90
14739;DHT22;7461;52.440;13.540;2023-04-01T02:06:08;9.50;99.90
14739;DHT22;7461;52.440;13.540;2023-04-01T02:08:40;9.50;99.90
14739;DHT22;7461;52.440;13.540;2023-04-01T02:11:11;9.50;99.90
14739;DHT22;7461;52.440;13.540;2023-04-01T02:13:43;9.50;99.90
14739;DHT22;7461;52.440;13.540;2023-04-01T02:16:14;9.40;99.90
14739;DHT22;7461;52.440;13.540;2023-04-01T02:18:43;9.50;99.90
14739;DHT22;7461;52.440;13.540;2023-04-01T02:21:12;9.50;99.90
14739;DHT22;7461;52.440;13.540;2023-04-01T02:23:42;9.50;99.90
14739;DHT22;7461;52.440;13.540;2023-04-01T02:26:09;9.50;99.90
14739;DHT22;7461;52.440;13.540;2023-04-01T02:28:39;9.50;99.90
14739;DHT22;7461;52.440;13.540;2023-04-01T02:31:08;9.50;99.90
14739;DHT22;7461;52.440;13.540;2023-04-01T02:33:37;9.50;99.90
14739;DHT22;7461;52.440;13.540;2023-04-01T02:36:05;9.50;99.90
14739;DHT22;7461;52.440;13.540;2023-04-01T02:38:32;9.50;99.90
14739;DHT22;7461;52.440;13.540;2023-04-01T02:41:03;9.50;99.90
14739;DHT22;7461;52.440;13.540;2023-04-01T02:43:31;9.50;99.90
14739;DHT22;7461;52.440;13.540;2023-04-01T02:45:59;9.50;99.90
14739;DHT22;7461;52.440;13.540;2023-04-01T02:48:27;9.50;99.90
14739;DHT22;7461;52.440;13.540;2023-04-01T02:50:54;9.50;99.90
14739;DHT22;7461;52.440;13.540;2023-04-01T02:53:21;9.50;99.90
14739;DHT22;7461;52.440;13.540;2023-04-01T02:55:48;9.50;99.90
14739;DHT22;7461;52.440;13.540;2023-04-01T02:58:18;9.50;99.90
14739;DHT22;7461;52.440;13.540;2023-04-01T03:00:46;9.50;99.90
14739;DHT22;7461;52.440;13.540;2023-04-01T03:03:13;9.50;99.90
14739;DHT22;7461;52.440;13.540;2023-04-01T03:05:40;9.40;99.90
14739;DHT22;7461;52.440;13.540;2023-04-01T03:08:07;9.40;99.90
14739;DHT22;7461;52.440;13.540;2023-04-01T03:10:34;9.50;99.90
14739;DHT22;7461;52.440;13.540;2023-04-01T03:13:01;9.50;99.90
14739;DHT22;7461;52.440;13.540;2023-04-01T03:15:29;9.50;99.90
14739;DHT22;7461;52.440;13.540;2023-04-01T03:17:56;9.50;99.90
14739;DHT22;7461;52.440;13.540;2023-04-01T03:20:24;9.40;99.90
14739;DHT22;7461;52.440;13.540;2023-04-01T03:22:51;9.40;99.90
14739;DHT22;7461;52.440;13.540;2023-04-01T03:25:18;9.40;99.90
14739;DHT22;7461;52.440;13.540;2023-04-01T03:27:45;9.50;99.90
14739;DHT22;7461;52.440;13.540;2023-04-01T03:30:12;9.40;99.90
14739;DHT22;7461;52.440;13.540;2023-04-01T03:32:41;9.50;99.90
14739;DHT22;7461;52.440;13.540;2023-04-01T03:35:08;9.50;99.90
14739;DHT22;7461;52.440;13.540;2023-04-01T03:37:36;9.50;99.90
14739;DHT22;7461;52.440;13.540;2023-04-01T03:40:04;9.50;99.90
14739;DHT22;7461;52.440;13.540;2023-04-01T03:42:31;9.50;99.90
14739;DHT22;7461;52.440;13.540;2023-04-01T03:44:58;9.40;99.90
14739;DHT22;7461;52.440;13.540;2023-04-01T03:47:25;9.40;99.90
14739;DHT22;7461;52.440;13.540;2023-04-01T03:49:53;9.40;99.90
14739;DHT22;7461;52.440;13.540;2023-04-01T03:52:20;9.50;99.90
14739;DHT22;7461;52.440;13.540;2023-04-01T03:54:47;9.50;99.90
14739;DHT22;7461;52.440;13.540;2023-04-01T03:57:14;9.50;99.90
14739;DHT22;7461;52.440;13.540;2023-04-01T03:59:41;9.50;99.90
14739;DHT22;7461;52.440;13.540;2023-04-01T04:02:08;9.50;99.90
14739;DHT22;7461;52.440;13.540;2023-04-01T04:04:35;9.40;99.90
14739;DHT22;7461;52.440;13.540;2023-04-01T04:07:03;9.50;99.90
14739;DHT22;7461;52.440;13.540;2023-04-01T04:09:30;9.50;99.90
14739;DHT22;7461;52.440;13.540;2023-04-01T04:11:58;9.50;99.90
14739;DHT22;7461;52.440;13.540;2023-04-01T04:14:25;9.50;99.90
14739;DHT22;7461;52.440;13.540;2023-04-01T04:16:52;9.50;99.90
14739;DHT22;7461;52.440;13.540;2023-04-01T04:19:19;9.50;99.90
14739;DHT22;7461;52.440;13.540;2023-04-01T04:21:46;9.40;99.90
14739;DHT22;7461;52.440;13.540;2023-04-01T04:24:14;9.40;99.90
14739;DHT22;7461;52.440;13.540;2023-04-01T04:26:41;9.40;99.90
14739;DHT22;7461;52.440;13.540;2023-04-01T04:29:08;9.40;99.90
14739;DHT22;7461;52.440;13.540;2023-04-01T04:31:35;9.40;99.90
14739;DHT22;7461;52.440;13.540;2023-04-01T04:34:05;9.40;99.90
14739;DHT22;7461;52.440;13.540;2023-04-01T04:36:32;9.50;99.90
14739;DHT22;7461;52.440;13.540;2023-04-01T04:38:58;9.50;99.90
14739;DHT22;7461;52.440;13.540;2023-04-01T04:41:29;9.50;99.90
14739;DHT22;7461;52.440;13.540;2023-04-01T04:43:56;9.50;99.90
14739;DHT22;7461;52.440;13.540;2023-04-01T04:46:24;9.50;99.90
14739;DHT22;7461;52.440;13.540;2023-04-01T04:48:51;9.50;99.90
14739;DHT22;7461;52.440;13.540;2023-04-01T04:51:19;9.50;99.90
14739;DHT22;7461;52.440;13.540;2023-04-01T04:53:46;9.50;99.90
14739;DHT22;7461;52.440;13.540;2023-04-01T04:56:17;9.50;99.90
14739;DHT22;7461;52.440;13.540;2023-04-01T04:58:45;9.50;99.90
14739;DHT22;7461;52.440;13.540;2023-04-01T05:01:14;9.50;99.90
14739;DHT22;7461;52.440;13.540;2023-04-01T05:03:43;9.60;99.90
14739;DHT22;7461;52.440;13.540;2023-04-01T05:06:12;9.60;99.90
14739;DHT22;7461;52.440;13.540;2023-04-01T05:08:39;9.60;99.90
14739;DHT22;7461;52.440;13.540;2023-04-01T05:11:09;9.60;99.90
14739;DHT22;7461;52.440;13.540;2023-04-01T05:13:36;9.60;99.90
14739;DHT22;7461;52.440;13.540;2023-04-01T05:16:08;9.60;99.90
14739;DHT22;7461;52.440;13.540;2023-04-01T05:18:35;9.60;99.90
14739;DHT22;7461;52.440;13.540;2023-04-01T05:21:02;9.60;99.90
14739;DHT22;7461;52.440;13.540;2023-04-01T05:23:31;9.60;99.90
14739;DHT22;7461;52.440;13.540;2023-04-01T05:25:58;9.60;99.90
14739;DHT22;7461;52.440;13.540;2023-04-01T05:28:25;9.60;99.90
14739;DHT22;7461;52.440;13.540;2023-04-01T05:30:52;9.60;99.90
14739;DHT22;7461;52.440;13.540;2023-04-01T05:33:20;9.60;99.90
14739;DHT22;7461;52.440;13.540;2023-04-01T05:35:47;9.60;99.90
14739;DHT22;7461;52.440;13.540;2023-04-01T05:38:14;9.60;99.90
14739;DHT22;7461;52.440;13.540;2023-04-01T05:40:41;9.60;99.90
14739;DHT22;7461;52.440;13.540;2023-04-01T05:43:08;9.60;99.90
14739;DHT22;7461;52.440;13.540;2023-04-01T05:45:35;9.60;99.90
14739;DHT22;7461;52.440;13.540;2023-04-01T05:48:02;9.60;99.90
14739;DHT22;7461;52.440;13.540;2023-04-01T05:50:30;9.60;99.90
14739;DHT22;7461;52.440;13.540;2023-04-01T05:52:57;9.60;99.90
14739;DHT22;7461;52.440;13.540;2023-04-01T05:55:24;9.70;99.90
14739;DHT22;7461;52.440;13.540;2023-04-01T05:57:51;9.70;99.90
14739;DHT22;7461;52.440;13.540;2023-04-01T06:00:19;9.70;99.90
14739;DHT22;7461;52.440;13.540;2023-04-01T06:02:46;9.70;99.90
14739;DHT22;7461;52.440;13.540;2023-04-01T06:05:17;9.70;99.90
14739;DHT22;7461;52.440;13.540;2023-04-01T06:07:46;9.70;99.90
14739;DHT22;7461;52.440;13.540;2023-04-01T06:10:15;9.70;99.90
14739;DHT22;7461;52.440;13.540;2023-04-01T06:12:52;9.70;99.90
14739;DHT22;7461;52.440;13.540;2023-04-01T06:15:28;9.70;99.90
14739;DHT22;7461;52.440;13.540;2023-04-01T06:18:11;9.70;99.90
14739;DHT22;7461;52.440;13.540;2023-04-01T06:20:45;9.70;99.90
14739;DHT22;7461;52.440;13.540;2023-04-01T06:23:39;9.70;99.90
14739;DHT22;7461;52.440;13.540;2023-04-01T06:26:23;9.70;99.90
14739;DHT22;7461;52.440;13.540;2023-04-01T06:29:14;9.80;99.90
14739;DHT22;7461;52.440;13.540;2023-04-01T06:32:08;9.80;99.90
14739;DHT22;7461;52.440;13.540;2023-04-01T06:35:01;9.80;99.90
14739;DHT22;7461;52.440;13.540;2023-04-01T06:37:44;9.80;99.90
14739;DHT22;7461;52.440;13.540;2023-04-01T06:43:27;9.80;99.90
14739;DHT22;7461;52.440;13.540;2023-04-01T06:46:04;9.80;99.90
14739;DHT22;7461;52.440;13.540;2023-04-01T06:48:45;9.80;99.90
14739;DHT22;7461;52.440;13.540;2023-04-01T06:51:24;9.80;99.90
14739;DHT22;7461;52.440;13.540;2023-04-01T06:53:58;9.90;99.90
14739;DHT22;7461;52.440;13.540;2023-04-01T06:56:29;9.90;99.90
14739;DHT22;7461;52.440;13.540;2023-04-01T06:58:58;9.90;99.90
14739;DHT22;7461;52.440;13.540;2023-04-01T07:01:32;9.90;99.90
14739;DHT22;7461;52.440;13.540;2023-04-01T07:04:04;9.90;99.90
14739;DHT22;7461;52.440;13.540;2023-04-01T07:06:36;9.90;99.90
14739;DHT22;7461;52.440;13.540;2023-04-01T07:09:09;9.90;99.90
14739;DHT22;7461;52.440;13.540;2023-04-01T07:11:39;9.90;99.90
14739;DHT22;7461;52.440;13.540;2023-04-01T07:14:13;9.90;99.90
14739;DHT22;7461;52.440;13.540;2023-04-01T07:16:46;10.00;99.90
14739;DHT22;7461;52.440;13.540;2023-04-01T07:19:20;10.00;99.90
14739;DHT22;7461;52.440;13.540;2023-04-01T07:21:50;10.00;99.90
14739;DHT22;7461;52.440;13.540;2023-04-01T07:24:23;10.00;99.90
14739;DHT22;7461;52.440;13.540;2023-04-01T07:26:55;10.00;99.90
14739;DHT22;7461;52.440;13.540;2023-04-01T07:29:23;10.00;99.90
14739;DHT22;7461;52.440;13.540;2023-04-01T07:32:17;10.00;99.90
14739;DHT22;7461;52.440;13.540;2023-04-01T07:34:59;10.00;99.90
14739;DHT22;7461;52.440;13.540;2023-04-01T07:37:31;10.10;99.90
14739;DHT22;7461;52.440;13.540;2023-04-01T07:40:12;10.10;99.90
14739;DHT22;7461;52.440;13.540;2023-04-01T07:42:57;10.10;99.90
14739;DHT22;7461;52.440;13.540;2023-04-01T07:45:31;10.10;99.90
14739;DHT22;7461;52.440;13.540;2023-04-01T07:48:11;10.20;99.90
14739;DHT22;7461;52.440;13.540;2023-04-01T07:50:47;10.20;99.90
14739;DHT22;7461;52.440;13.540;2023-04-01T07:53:21;10.10;99.90
14739;DHT22;7461;52.440;13.540;2023-04-01T07:55:57;10.20;99.90
14739;DHT22;7461;52.440;13.540;2023-04-01T07:58:31;10.20;99.90
14739;DHT22;7461;52.440;13.540;2023-04-01T08:01:03;10.30;99.90
14739;DHT22;7461;52.440;13.540;2023-04-01T08:03:41;10.30;99.90
14739;DHT22;7461;52.440;13.540;2023-04-01T08:06:16;10.30;99.90
14739;DHT22;7461;52.440;13.540;2023-04-01T08:08:54;10.30;99.90
14739;DHT22;7461;52.440;13.540;2023-04-01T08:11:35;10.30;99.90
14739;DHT22;7461;52.440;13.540;2023-04-01T08:14:14;10.40;99.90
14739;DHT22;7461;52.440;13.540;2023-04-01T08:16:49;10.50;99.90
14739;DHT22;7461;52.440;13.540;2023-04-01T08:19:26;10.60;99.90
14739;DHT22;7461;52.440;13.540;2023-04-01T08:21:58;10.60;99.90
14739;DHT22;7461;52.440;13.540;2023-04-01T08:24:34;10.60;99.90
14739;DHT22;7461;52.440;13.540;2023-04-01T08:27:09;10.70;99.90
14739;DHT22;7461;52.440;13.540;2023-04-01T08:29:42;10.70;99.90
14739;DHT22;7461;52.440;13.540;2023-04-01T08:32:16;10.70;99.90
14739;DHT22;7461;52.440;13.540;2023-04-01T08:34:51;10.70;99.90
14739;DHT22;7461;52.440;13.540;2023-04-01T08:37:22;10.70;99.90
14739;DHT22;7461;52.440;13.540;2023-04-01T08:39:54;10.70;99.90
14739;DHT22;7461;52.440;13.540;2023-04-01T08:42:44;10.70;99.90
14739;DHT22;7461;52.440;13.540;2023-04-01T08:45:37;10.80;99.90
14739;DHT22;7461;52.440;13.540;2023-04-01T08:48:23;10.80;99.90
14739;DHT22;7461;52.440;13.540;2023-04-01T08:57:06;10.40;99.90
14739;DHT22;7461;52.440;13.540;2023-04-01T08:59:52;10.20;99.90
14739;DHT22;7461;52.440;13.540;2023-04-01T09:02:39;10.10;99.90
14739;DHT22;7461;52.440;13.540;2023-04-01T09:05:35;10.10;99.90
14739;DHT22;7461;52.440;13.540;2023-04-01T09:08:12;9.90;99.90
14739;DHT22;7461;52.440;13.540;2023-04-01T09:11:08;9.70;99.90
14739;DHT22;7461;52.440;13.540;2023-04-01T09:13:52;9.60;99.90
14739;DHT22;7461;52.440;13.540;2023-04-01T09:17:00;9.60;99.90
14739;DHT22;7461;52.440;13.540;2023-04-01T09:19:36;9.60;99.90
14739;DHT22;7461;52.440;13.540;2023-04-01T09:22:29;9.60;99.90
14739;DHT22;7461;52.440;13.540;2023-04-01T09:27:56;9.70;99.90
14739;DHT22;7461;52.440;13.540;2023-04-01T09:30:45;9.70;99.90
14739;DHT22;7461;52.440;13.540;2023-04-01T09:33:55;9.60;99.90
14739;DHT22;7461;52.440;13.540;2023-04-01T09:36:47;9.60;99.90
14739;DHT22;7461;52.440;13.540;2023-04-01T09:39:36;9.60;99.90
14739;DHT22;7461;52.440;13.540;2023-04-01T09:42:15;9.60;99.90
14739;DHT22;7461;52.440;13.540;2023-04-01T09:44:48;9.60;99.90
14739;DHT22;7461;52.440;13.540;2023-04-01T09:47:26;9.60;99.90
14739;DHT22;7461;52.440;13.540;2023-04-01T09:50:06;9.60;99.90
14739;DHT22;7461;52.440;13.540;2023-04-01T09:52:46;9.60;99.90
14739;DHT22;7461;52.440;13.540;2023-04-01T09:58:23;9.70;99.90
14739;DHT22;7461;52.440;13.540;2023-04-01T10:07:35;9.70;99.90
14739;DHT22;7461;52.440;13.540;2023-04-01T10:10:26;9.70;99.90
14739;DHT22;7461;52.440;13.540;2023-04-01T10:19:30;9.60;99.90
14739;DHT22;7461;52.440;13.540;2023-04-01T10:28:26;9.50;99.90
14739;DHT22;7461;52.440;13.540;2023-04-01T10:31:20;9.40;99.90
14739;DHT22;7461;52.440;13.540;2023-04-01T10:34:09;9.50;99.90
14739;DHT22;7461;52.440;13.540;2023-04-01T10:36:53;9.50;99.90
14739;DHT22;7461;52.440;13.540;2023-04-01T10:42:52;9.50;99.90
14739;DHT22;7461;52.440;13.540;2023-04-01T10:52:07;9.30;99.90
14739;DHT22;7461;52.440;13.540;2023-04-01T10:54:47;9.30;99.90
14739;DHT22;7461;52.440;13.540;2023-04-01T11:03:46;9.20;99.90
14739;DHT22;7461;52.440;13.540;2023-04-01T11:16:24;9.20;99.90
14739;DHT22;7461;52.440;13.540;2023-04-01T11:22:29;9.20;99.90
14739;DHT22;7461;52.440;13.540;2023-04-01T11:25:21;9.10;99.90
14739;DHT22;7461;52.440;13.540;2023-04-01T11:28:16;9.10;99.90
14739;DHT22;7461;52.440;13.540;2023-04-01T11:31:04;9.10;99.90
14739;DHT22;7461;52.440;13.540;2023-04-01T11:33:42;9.10;99.90
14739;DHT22;7461;52.440;13.540;2023-04-01T11:36:37;9.00;99.90
14739;DHT22;7461;52.440;13.540;2023-04-01T11:39:17;9.10;99.90
14739;DHT22;7461;52.440;13.540;2023-04-01T11:41:54;9.00;99.90
14739;DHT22;7461;52.440;13.540;2023-04-01T11:44:25;9.00;99.90
14739;DHT22;7461;52.440;13.540;2023-04-01T11:47:18;9.00;99.90
14739;DHT22;7461;52.440;13.540;2023-04-01T11:49:55;9.00;99.90
14739;DHT22;7461;52.440;13.540;2023-04-01T11:52:39;8.90;99.90
14739;DHT22;7461;52.440;13.540;2023-04-01T11:55:28;8.80;99.90
14739;DHT22;7461;52.440;13.540;2023-04-01T11:58:30;8.90;99.90
14739;DHT22;7461;52.440;13.540;2023-04-01T12:01:34;8.90;99.90
14739;DHT22;7461;52.440;13.540;2023-04-01T12:04:40;8.90;99.90
14739;DHT22;7461;52.440;13.540;2023-04-01T12:07:18;8.90;99.90
14739;DHT22;7461;52.440;13.540;2023-04-01T12:09:56;8.90;99.90
14739;DHT22;7461;52.440;13.540;2023-04-01T12:12:32;8.90;99.90
14739;DHT22;7461;52.440;13.540;2023-04-01T12:15:16;8.90;99.90
14739;DHT22;7461;52.440;13.540;2023-04-01T12:17:50;8.90;99.90
14739;DHT22;7461;52.440;13.540;2023-04-01T12:20:36;8.80;99.90
14739;DHT22;7461;52.440;13.540;2023-04-01T12:23:17;8.80;99.90
14739;DHT22;7461;52.440;13.540;2023-04-01T12:26:05;8.70;99.90
14739;DHT22;7461;52.440;13.540;2023-04-01T12:28:41;8.70;99.90
14739;DHT22;7461;52.440;13.540;2023-04-01T12:31:19;8.70;99.90
14739;DHT22;7461;52.440;13.540;2023-04-01T12:34:09;8.70;99.90
14739;DHT22;7461;52.440;13.540;2023-04-01T12:36:48;8.80;99.90
14739;DHT22;7461;52.440;13.540;2023-04-01T12:39:30;8.70;99.90
14739;DHT22;7461;52.440;13.540;2023-04-01T12:42:07;8.70;99.90
14739;DHT22;7461;52.440;13.540;2023-04-01T12:44:51;8.60;99.90
14739;DHT22;7461;52.440;13.540;2023-04-01T12:47:44;8.60;99.90
14739;DHT22;7461;52.440;13.540;2023-04-01T12:50:34;8.60;99.90
14739;DHT22;7461;52.440;13.540;2023-04-01T12:53:25;8.60;99.90
14739;DHT22;7461;52.440;13.540;2023-04-01T12:55:59;8.40;99.90
14739;DHT22;7461;52.440;13.540;2023-04-01T12:58:51;8.50;99.90
14739;DHT22;7461;52.440;13.540;2023-04-01T13:01:29;8.40;99.90
14739;DHT22;7461;52.440;13.540;2023-04-01T13:04:26;8.30;99.90
14739;DHT22;7461;52.440;13.540;2023-04-01T13:07:10;8.30;99.90
14739;DHT22;7461;52.440;13.540;2023-04-01T13:09:47;8.30;99.90
14739;DHT22;7461;52.440;13.540;2023-04-01T13:12:40;8.20;99.90
14739;DHT22;7461;52.440;13.540;2023-04-01T13:15:32;8.20;99.90
14739;DHT22;7461;52.440;13.540;2023-04-01T13:18:13;8.20;99.90
14739;DHT22;7461;52.440;13.540;2023-04-01T13:20:45;8.20;99.90
14739;DHT22;7461;52.440;13.540;2023-04-01T13:26:18;8.20;99.90
14739;DHT22;7461;52.440;13.540;2023-04-01T13:28:52;8.30;99.90
14739;DHT22;7461;52.440;13.540;2023-04-01T13:31:34;8.30;99.90
14739;DHT22;7461;52.440;13.540;2023-04-01T13:34:16;8.30;99.90
14739;DHT22;7461;52.440;13.540;2023-04-01T13:36:58;8.30;99.90
14739;DHT22;7461;52.440;13.540;2023-04-01T13:39:40;8.30;99.90
14739;DHT22;7461;52.440;13.540;2023-04-01T13:42:17;8.30;99.90
14739;DHT22;7461;52.440;13.540;2023-04-01T13:44:51;8.20;99.90
14739;DHT22;7461;52.440;13.540;2023-04-01T13:56:16;8.10;99.90
14739;DHT22;7461;52.440;13.540;2023-04-01T14:01:52;8.10;99.90
14739;DHT22;7461;52.440;13.540;2023-04-01T14:04:50;8.20;99.90
14739;DHT22;7461;52.440;13.540;2023-04-01T14:07:36;8.20;99.90
14739;DHT22;7461;52.440;13.540;2023-04-01T14:10:18;8.20;99.90
14739;DHT22;7461;52.440;13.540;2023-04-01T14:12:50;8.20;99.90
14739;DHT22;7461;52.440;13.540;2023-04-01T14:15:34;8.20;99.90
14739;DHT22;7461;52.440;13.540;2023-04-01T14:21:30;8.10;99.90
14739;DHT22;7461;52.440;13.540;2023-04-01T14:24:21;8.00;99.90
14739;DHT22;7461;52.440;13.540;2023-04-01T14:27:09;8.00;99.90
14739;DHT22;7461;52.440;13.540;2023-04-01T14:29:42;7.90;99.90
14739;DHT22;7461;52.440;13.540;2023-04-01T14:32:22;7.90;99.90
14739;DHT22;7461;52.440;13.540;2023-04-01T14:34:59;7.90;99.90
14739;DHT22;7461;52.440;13.540;2023-04-01T14:37:48;7.80;99.90
14739;DHT22;7461;52.440;13.540;2023-04-01T14:40:28;7.80;99.90
14739;DHT22;7461;52.440;13.540;2023-04-01T14:43:14;7.80;99.90
14739;DHT22;7461;52.440;13.540;2023-04-01T14:48:56;7.70;99.90
14739;DHT22;7461;52.440;13.540;2023-04-01T14:51:29;7.60;99.90
14739;DHT22;7461;52.440;13.540;2023-04-01T14:54:05;7.60;99.90
14739;DHT22;7461;52.440;13.540;2023-04-01T14:56:36;7.60;99.90
14739;DHT22;7461;52.440;13.540;2023-04-01T14:59:13;7.60;99.90
14739;DHT22;7461;52.440;13.540;2023-04-01T15:01:47;7.60;99.90
14739;DHT22;7461;52.440;13.540;2023-04-01T15:10:59;7.50;99.90
14739;DHT22;7461;52.440;13.540;2023-04-01T15:13:44;7.50;99.90
14739;DHT22;7461;52.440;13.540;2023-04-01T15:16:24;7.40;99.90
14739;DHT22;7461;52.440;13.540;2023-04-01T15:19:01;7.40;99.90
14739;DHT22;7461;52.440;13.540;2023-04-01T15:21:46;7.40;99.90
14739;DHT22;7461;52.440;13.540;2023-04-01T15:24:21;7.40;99.90
14739;DHT22;7461;52.440;13.540;2023-04-01T15:32:45;7.50;99.90
14739;DHT22;7461;52.440;13.540;2023-04-01T15:35:21;7.40;99.90
14739;DHT22;7461;52.440;13.540;2023-04-01T15:37:53;7.40;99.90
14739;DHT22;7461;52.440;13.540;2023-04-01T15:40:25;7.30;99.90
14739;DHT22;7461;52.440;13.540;2023-04-01T15:43:10;7.30;99.90
14739;DHT22;7461;52.440;13.540;2023-04-01T15:45:56;7.30;99.90
14739;DHT22;7461;52.440;13.540;2023-04-01T15:48:34;7.30;99.90
14739;DHT22;7461;52.440;13.540;2023-04-01T15:51:14;7.30;99.90
14739;DHT22;7461;52.440;13.540;2023-04-01T15:54:12;7.20;99.90
14739;DHT22;7461;52.440;13.540;2023-04-01T15:57:00;7.20;99.90
14739;DHT22;7461;52.440;13.540;2023-04-01T16:02:33;7.10;99.90
14739;DHT22;7461;52.440;13.540;2023-04-01T16:05:09;7.00;99.90
14739;DHT22;7461;52.440;13.540;2023-04-01T16:07:57;7.00;99.90
14739;DHT22;7461;52.440;13.540;2023-04-01T16:10:44;7.00;99.90
14739;DHT22;7461;52.440;13.540;2023-04-01T16:13:26;7.00;99.90
14739;DHT22;7461;52.440;13.540;2023-04-01T16:16:07;7.00;99.90
14739;DHT22;7461;52.440;13.540;2023-04-01T16:18:54;7.00;99.90
14739;DHT22;7461;52.440;13.540;2023-04-01T16:21:35;7.00;99.90
14739;DHT22;7461;52.440;13.540;2023-04-01T16:24:12;7.00;99.90
14739;DHT22;7461;52.440;13.540;2023-04-01T16:26:48;6.90;99.90
14739;DHT22;7461;52.440;13.540;2023-04-01T16:29:27;7.00;99.90
14739;DHT22;7461;52.440;13.540;2023-04-01T16:32:08;6.90;99.90
14739;DHT22;7461;52.440;13.540;2023-04-01T16:35:21;6.80;99.90
14739;DHT22;7461;52.440;13.540;2023-04-01T16:38:09;6.80;99.90
14739;DHT22;7461;52.440;13.540;2023-04-01T16:43:45;6.80;99.90
14739;DHT22;7461;52.440;13.540;2023-04-01T16:46:30;6.70;99.90
14739;DHT22;7461;52.440;13.540;2023-04-01T16:49:13;6.70;99.90
14739;DHT22;7461;52.440;13.540;2023-04-01T16:51:47;6.70;99.90
14739;DHT22;7461;52.440;13.540;2023-04-01T16:54:28;6.70;99.90
14739;DHT22;7461;52.440;13.540;2023-04-01T16:57:02;6.70;99.90
14739;DHT22;7461;52.440;13.540;2023-04-01T16:59:35;6.60;99.90
14739;DHT22;7461;52.440;13.540;2023-04-01T17:02:10;6.60;99.90
14739;DHT22;7461;52.440;13.540;2023-04-01T17:04:57;6.60;99.90
14739;DHT22;7461;52.440;13.540;2023-04-01T17:07:43;6.60;99.90
14739;DHT22;7461;52.440;13.540;2023-04-01T17:10:25;6.50;99.90
14739;DHT22;7461;52.440;13.540;2023-04-01T17:13:17;6.50;99.90
14739;DHT22;7461;52.440;13.540;2023-04-01T17:15:54;6.50;99.90
14739;DHT22;7461;52.440;13.540;2023-04-01T17:18:37;6.50;99.90
14739;DHT22;7461;52.440;13.540;2023-04-01T17:21:13;6.50;99.90
14739;DHT22;7461;52.440;13.540;2023-04-01T17:23:48;6.50;99.90
14739;DHT22;7461;52.440;13.540;2023-04-01T17:26:27;6.50;99.90
14739;DHT22;7461;52.440;13.540;2023-04-01T17:29:09;6.40;99.90
14739;DHT22;7461;52.440;13.540;2023-04-01T17:31:56;6.30;99.90
14739;DHT22;7461;52.440;13.540;2023-04-01T17:35:00;6.30;99.90
14739;DHT22;7461;52.440;13.540;2023-04-01T17:37:48;6.30;99.90
14739;DHT22;7461;52.440;13.540;2023-04-01T17:40:36;6.20;99.90
14739;DHT22;7461;52.440;13.540;2023-04-01T17:43:22;6.20;99.90
14739;DHT22;7461;52.440;13.540;2023-04-01T17:45:57;6.10;99.90
14739;DHT22;7461;52.440;13.540;2023-04-01T17:48:38;6.10;99.90
14739;DHT22;7461;52.440;13.540;2023-04-01T17:51:23;6.00;99.90
14739;DHT22;7461;52.440;13.540;2023-04-01T17:54:16;6.00;99.90
14739;DHT22;7461;52.440;13.540;2023-04-01T17:57:02;6.00;99.90
14739;DHT22;7461;52.440;13.540;2023-04-01T17:59:37;5.90;99.90
14739;DHT22;7461;52.440;13.540;2023-04-01T18:02:21;5.90;99.90
14739;DHT22;7461;52.440;13.540;2023-04-01T18:05:24;5.90;99.90
14739;DHT22;7461;52.440;13.540;2023-04-01T18:08:34;5.90;99.90
14739;DHT22;7461;52.440;13.540;2023-04-01T18:11:12;5.90;99.90
14739;DHT22;7461;52.440;13.540;2023-04-01T18:20:11;5.70;99.90
14739;DHT22;7461;52.440;13.540;2023-04-01T18:22:44;5.60;99.90
14739;DHT22;7461;52.440;13.540;2023-04-01T18:25:20;5.60;99.90
14739;DHT22;7461;52.440;13.540;2023-04-01T18:27:53;5.60;99.90
14739;DHT22;7461;52.440;13.540;2023-04-01T18:30:26;5.50;99.90
14739;DHT22;7461;52.440;13.540;2023-04-01T18:32:58;5.50;99.90
14739;DHT22;7461;52.440;13.540;2023-04-01T18:35:47;5.50;99.90